Cumberland, WI (54829)

11:08 AM CDT on July 23, 2016 (GMT -0500)
open farm land | | Change Station
Active Advisory: Flash Flood Watch Active Notice: Public Information Statement

Elev 1273 ft 45.46 °N, 92.02 °W | Updated 58 seconds ago

Clear
Clear
79.5 °F
Feels Like 83 °F
N
3.2
Wind Variable Wind from South

Today
High -- | Low -- °F
--% Chance of Precip.
Yesterday
High -- | Low -- °F
Precip. -- in
Pressure 29.95 in
Visibility 10.0 miles
Clouds Clear
Heat Index 83 °F
Dew Point 70 °F
Humidity 74%
Rainfall 0.12 in
Snow Depth Not available.
5:42 AM 8:46 PM
Waning Gibbous, 84% visible
METAR KUBE 231555Z AUTO 13008KT 10SM CLR 25/20 A2995 RMK AO2 LTG DSNT S AND SW
Pressure 29.95 in
Visibility 10.0 miles
Clouds Clear
Heat Index 83 °F
Dew Point 70 °F
Humidity 74%
Rainfall 0.12 in
Snow Depth Not available.
5:42 AM 8:46 PM
Waning Gibbous, 84% visible
METAR KUBE 231555Z AUTO 13008KT 10SM CLR 25/20 A2995 RMK AO2 LTG DSNT S AND SW

10-Day Weather Forecast

Almanac

Astronomy

Jul. 23, 2016 Rise Set
Actual Time
Civil Twilight
Nautical Twilight
Astronomical Twilight
Moon
Length of Visible Light
Length of Day
Tomorrow will be .
, % of the Moon is Illuminated

Today's Extremes

State Highs State Lows

Community

WunderPhotos

Upload Photos

1,926,857 photos uploaded!

WunderBlog® & News

Nearby

Air Quality

  Air Quality AQ Index Pollutant
Not available.

Snow Depth

Station Depth Elevation

Earthquake Activity

City Distance Mag. Time & Date
Minimum magnitude displayed is 2.5.

Coastal Water Temperatures

Place Temperature

Stations

Nearby Weather Stations

Station Location Temp. Windchill Dew Point Humidity Wind Precip. Elev Updated Type
                   

Watches & Warnings

Flash Flood Watch
Issued: 5:13 AM CDT Jul. 23, 2016 – National Weather Service

... Flash Flood Watch remains in effect from noon CDT today
through Sunday morning...

The Flash Flood Watch continues for

* portions of Minnesota and northwest Wisconsin... including the
following areas... in Minnesota... Benton... Chisago... Isanti...
Kanabec... Mille Lacs and Morrison counties. In northwest
Wisconsin... Barron... Polk and Rusk counties.

* From noon CDT today through Sunday morning

* recent heavy rainfall... combined with the potential of high
rainfall rates expected during this upcoming event... will lead
to an increase the flooding threat in the watch area.

Precautionary/preparedness actions...

A Flash Flood Watch means that conditions may develop that lead
to flash flooding. Flash flooding is a very dangerous situation.

You should monitor later forecasts and be prepared to take action
should flash flood warnings be issued.